Startpagina
METAR-TAF:

METAR-TAF

Vliegvelden :

Andahuaylas, Peru

breedte: 13-43S, lengte: 073-21W, hoogte: 3444 m

Actueel weer

Dit bericht is 6 uur en het 40 minuten geleden gemaakt, om 19:00 UTC
Wind 9 kt uit het noordnoordwesten
Temperatuur 16°C
Vochtigheid 68%
Druk 1032 hPa
Zicht: 8000 m
Verspreide wolken op 1200 ft
Gebroken wolken op 5000 ft

METAR: SPHY 241900Z 34009KT 8000 SCT012 BKN050 16/10 Q1032 RMK BIRD HAZARD RWY03/21 PP000

Tijdstip: 20:40 (01:40 UTC)

Verwachting

Dit bericht is 8 uur en het 40 minuten geleden gemaakt, om 17:00 UTC
Verwachting geldig van 24 om 18 UTC tot 25 om 18 UTC
Wind 5 kt uit het noorden
Zicht: 8000 m
Verspreide wolken op 1200 ft
Gebroken wolken op 5000 ft
Tijdelijke
van 25 om 09 UTC tot 25 om 13 UTC
Zicht: 6000 m
regen

TAF: SPHY 241700Z 2418/2518 01005KT 8000 SCT012 BKN050 TX15/2419Z TN07/2511Z TEMPO 2509/2513 6000 RA

Waarnemingen en weersverwachtingen van meer dan 4000 vliegvelden (METAR en TAF).

De beschikbare stations zijn de gele en rode punten op de kaart.

Ga met uw muis naar het station om de naam te zien.

Klik dan om waarnemingen en weersverwachtingen te zien.

kaart wijzigen: klik op de groene knoppen met een zwart kruis om in te zoomen, op de groene knop met een streepje om uit te zoomen of op de groene pijlen voor aangrenzende kaarten.


METAR-TAF: